sensor_id;sensor_type;location;lat;lon;timestamp;pressure;altitude;pressure_sealevel;temperature;humidity
12879;BME280;20617;49.476;10.986;2023-05-02T00:00:41;98274.25;;;11.07;100.00
12879;BME280;20617;49.476;10.986;2023-05-02T00:02:48;98281.50;;;11.01;100.00
12879;BME280;20617;49.476;10.986;2023-05-02T00:04:54;98278.03;;;11.00;100.00
12879;BME280;20617;49.476;10.986;2023-05-02T00:06:59;98274.59;;;11.00;100.00
12879;BME280;20617;49.476;10.986;2023-05-02T00:09:03;98272.03;;;10.98;100.00
12879;BME280;20617;49.476;10.986;2023-05-02T00:11:08;98268.53;;;10.99;100.00
12879;BME280;20617;49.476;10.986;2023-05-02T00:13:13;98269.38;;;11.00;100.00
12879;BME280;20617;49.476;10.986;2023-05-02T00:15:17;98265.91;;;10.99;100.00
12879;BME280;20617;49.476;10.986;2023-05-02T00:17:22;98266.78;;;11.00;100.00
12879;BME280;20617;49.476;10.986;2023-05-02T00:19:29;98273.59;;;11.02;100.00
12879;BME280;20617;49.476;10.986;2023-05-02T00:21:34;98271.06;;;11.01;100.00
12879;BME280;20617;49.476;10.986;2023-05-02T00:23:39;98271.91;;;11.01;100.00
12879;BME280;20617;49.476;10.986;2023-05-02T00:25:44;98270.09;;;11.03;100.00
12879;BME280;20617;49.476;10.986;2023-05-02T00:27:49;98270.75;;;11.08;100.00
12879;BME280;20617;49.476;10.986;2023-05-02T00:29:54;98273.28;;;11.10;100.00
12879;BME280;20617;49.476;10.986;2023-05-02T00:31:59;98263.69;;;11.10;100.00
12879;BME280;20617;49.476;10.986;2023-05-02T00:34:04;98264.63;;;11.09;100.00
12879;BME280;20617;49.476;10.986;2023-05-02T00:36:14;98266.44;;;11.07;100.00
12879;BME280;20617;49.476;10.986;2023-05-02T00:38:19;98260.38;;;11.07;100.00
12879;BME280;20617;49.476;10.986;2023-05-02T00:40:24;98262.16;;;11.06;100.00
12879;BME280;20617;49.476;10.986;2023-05-02T00:42:28;98261.44;;;11.03;100.00
12879;BME280;20617;49.476;10.986;2023-05-02T00:44:35;98260.66;;;11.01;100.00
12879;BME280;20617;49.476;10.986;2023-05-02T00:46:41;98264.22;;;10.98;100.00
12879;BME280;20617;49.476;10.986;2023-05-02T00:48:46;98265.22;;;10.96;100.00
12879;BME280;20617;49.476;10.986;2023-05-02T00:50:50;98264.38;;;10.95;100.00
12879;BME280;20617;49.476;10.986;2023-05-02T00:52:58;98264.38;;;10.95;100.00
12879;BME280;20617;49.476;10.986;2023-05-02T00:55:04;98265.28;;;10.94;100.00
12879;BME280;20617;49.476;10.986;2023-05-02T00:57:09;98273.94;;;10.95;100.00
12879;BME280;20617;49.476;10.986;2023-05-02T00:59:14;98265.47;;;10.90;100.00
12879;BME280;20617;49.476;10.986;2023-05-02T01:01:23;98270.81;;;10.86;100.00
12879;BME280;20617;49.476;10.986;2023-05-02T01:03:31;98267.78;;;10.77;100.00
12879;BME280;20617;49.476;10.986;2023-05-02T01:05:42;98272.19;;;10.75;100.00
12879;BME280;20617;49.476;10.986;2023-05-02T01:10:20;98282.06;;;10.67;100.00
12879;BME280;20617;49.476;10.986;2023-05-02T01:12:27;98279.59;;;10.63;100.00
12879;BME280;20617;49.476;10.986;2023-05-02T01:14:35;98277.09;;;10.62;100.00
12879;BME280;20617;49.476;10.986;2023-05-02T01:16:42;98282.34;;;10.60;100.00
12879;BME280;20617;49.476;10.986;2023-05-02T01:18:48;98276.28;;;10.60;100.00
12879;BME280;20617;49.476;10.986;2023-05-02T01:20:56;98278.94;;;10.58;100.00
12879;BME280;20617;49.476;10.986;2023-05-02T01:23:03;98280.78;;;10.56;100.00
12879;BME280;20617;49.476;10.986;2023-05-02T01:25:26;98279.28;;;10.51;100.00
12879;BME280;20617;49.476;10.986;2023-05-02T01:27:35;98276.72;;;10.49;100.00
12879;BME280;20617;49.476;10.986;2023-05-02T01:29:43;98280.31;;;10.47;100.00
12879;BME280;20617;49.476;10.986;2023-05-02T01:31:49;98274.25;;;10.46;100.00
12879;BME280;20617;49.476;10.986;2023-05-02T01:33:54;98269.03;;;10.46;100.00
12879;BME280;20617;49.476;10.986;2023-05-02T01:36:00;98272.56;;;10.45;100.00
12879;BME280;20617;49.476;10.986;2023-05-02T01:38:05;98271.84;;;10.41;100.00
12879;BME280;20617;49.476;10.986;2023-05-02T01:40:11;98268.47;;;10.39;100.00
12879;BME280;20617;49.476;10.986;2023-05-02T01:42:17;98268.59;;;10.36;100.00
12879;BME280;20617;49.476;10.986;2023-05-02T01:44:23;98269.47;;;10.35;100.00
12879;BME280;20617;49.476;10.986;2023-05-02T01:46:32;98274.63;;;10.37;100.00
12879;BME280;20617;49.476;10.986;2023-05-02T01:48:39;98276.31;;;10.38;100.00
12879;BME280;20617;49.476;10.986;2023-05-02T01:50:44;98283.41;;;10.34;100.00
12879;BME280;20617;49.476;10.986;2023-05-02T01:52:51;98284.34;;;10.33;100.00
12879;BME280;20617;49.476;10.986;2023-05-02T01:54:56;98283.63;;;10.30;100.00
12879;BME280;20617;49.476;10.986;2023-05-02T01:57:04;98285.31;;;10.31;100.00
12879;BME280;20617;49.476;10.986;2023-05-02T01:59:10;98291.41;;;10.30;100.00
12879;BME280;20617;49.476;10.986;2023-05-02T02:01:15;98295.00;;;10.27;100.00
12879;BME280;20617;49.476;10.986;2023-05-02T02:03:23;98294.22;;;10.24;100.00
12879;BME280;20617;49.476;10.986;2023-05-02T02:05:29;98296.94;;;10.20;100.00
12879;BME280;20617;49.476;10.986;2023-05-02T02:07:36;98297.19;;;10.14;100.00
12879;BME280;20617;49.476;10.986;2023-05-02T02:09:41;98294.72;;;10.11;100.00
12879;BME280;20617;49.476;10.986;2023-05-02T02:11:46;98293.06;;;10.09;100.00
12879;BME280;20617;49.476;10.986;2023-05-02T02:13:54;98289.63;;;10.08;100.00
12879;BME280;20617;49.476;10.986;2023-05-02T02:16:02;98286.22;;;10.06;100.00
12879;BME280;20617;49.476;10.986;2023-05-02T02:18:08;98291.63;;;10.02;100.00
12879;BME280;20617;49.476;10.986;2023-05-02T02:20:17;98302.03;;;10.02;100.00
12879;BME280;20617;49.476;10.986;2023-05-02T02:22:22;98298.59;;;10.01;100.00
12879;BME280;20617;49.476;10.986;2023-05-02T02:24:29;98299.47;;;10.00;100.00
12879;BME280;20617;49.476;10.986;2023-05-02T02:26:34;98299.47;;;10.00;100.00
12879;BME280;20617;49.476;10.986;2023-05-02T02:28:39;98301.31;;;9.98;100.00
12879;BME280;20617;49.476;10.986;2023-05-02T02:30:44;98310.97;;;9.94;100.00
12879;BME280;20617;49.476;10.986;2023-05-02T02:32:49;98307.59;;;9.92;100.00
12879;BME280;20617;49.476;10.986;2023-05-02T02:34:54;98314.47;;;9.93;100.00
12879;BME280;20617;49.476;10.986;2023-05-02T02:37:04;98319.63;;;9.95;100.00
12879;BME280;20617;49.476;10.986;2023-05-02T02:39:12;98321.38;;;9.94;100.00
12879;BME280;20617;49.476;10.986;2023-05-02T02:41:22;98331.75;;;9.94;100.00
12879;BME280;20617;49.476;10.986;2023-05-02T02:43:32;98331.59;;;9.99;100.00
12879;BME280;20617;49.476;10.986;2023-05-02T02:45:43;98333.16;;;10.03;100.00
12879;BME280;20617;49.476;10.986;2023-05-02T02:47:53;98330.44;;;10.06;100.00
12879;BME280;20617;49.476;10.986;2023-05-02T02:50:03;98333.72;;;10.11;100.00
12879;BME280;20617;49.476;10.986;2023-05-02T02:52:16;98339.00;;;10.10;100.00
12879;BME280;20617;49.476;10.986;2023-05-02T02:54:23;98340.81;;;10.08;100.00
12879;BME280;20617;49.476;10.986;2023-05-02T02:56:34;98345.94;;;10.09;100.00
12879;BME280;20617;49.476;10.986;2023-05-02T02:58:42;98349.41;;;10.10;100.00
12879;BME280;20617;49.476;10.986;2023-05-02T03:00:49;98351.38;;;10.03;100.00
12879;BME280;20617;49.476;10.986;2023-05-02T03:02:55;98350.66;;;10.00;100.00
12879;BME280;20617;49.476;10.986;2023-05-02T03:05:00;98354.03;;;10.02;100.00
12879;BME280;20617;49.476;10.986;2023-05-02T03:07:06;98361.88;;;10.00;100.00
12879;BME280;20617;49.476;10.986;2023-05-02T03:09:17;98359.28;;;10.00;100.00
12879;BME280;20617;49.476;10.986;2023-05-02T03:11:25;98364.72;;;9.94;100.00
12879;BME280;20617;49.476;10.986;2023-05-02T03:13:31;98374.75;;;9.81;100.00
12879;BME280;20617;49.476;10.986;2023-05-02T03:15:50;98380.22;;;9.73;100.00
12879;BME280;20617;49.476;10.986;2023-05-02T03:18:04;98382.53;;;9.58;100.00
12879;BME280;20617;49.476;10.986;2023-05-02T03:20:09;98389.66;;;9.52;100.00
12879;BME280;20617;49.476;10.986;2023-05-02T03:22:14;98388.97;;;9.47;100.00
12879;BME280;20617;49.476;10.986;2023-05-02T03:24:21;98387.16;;;9.49;100.00
12879;BME280;20617;49.476;10.986;2023-05-02T03:26:28;98384.47;;;9.52;100.00
12879;BME280;20617;49.476;10.986;2023-05-02T03:28:33;98384.22;;;9.59;100.00
12879;BME280;20617;49.476;10.986;2023-05-02T03:30:39;98385.88;;;9.61;100.00
12879;BME280;20617;49.476;10.986;2023-05-02T03:32:44;98390.13;;;9.64;100.00
12879;BME280;20617;49.476;10.986;2023-05-02T03:34:51;98389.31;;;9.62;100.00
12879;BME280;20617;49.476;10.986;2023-05-02T03:37:03;98383.28;;;9.61;100.00
12879;BME280;20617;49.476;10.986;2023-05-02T03:39:08;98379.84;;;9.61;100.00
12879;BME280;20617;49.476;10.986;2023-05-02T03:41:16;98383.28;;;9.61;100.00
12879;BME280;20617;49.476;10.986;2023-05-02T03:43:27;98381.53;;;9.62;100.00
12879;BME280;20617;49.476;10.986;2023-05-02T03:45:32;98384.13;;;9.62;100.00
12879;BME280;20617;49.476;10.986;2023-05-02T03:47:37;98382.38;;;9.62;100.00
12879;BME280;20617;49.476;10.986;2023-05-02T03:49:42;98389.28;;;9.63;100.00
12879;BME280;20617;49.476;10.986;2023-05-02T03:51:48;98391.81;;;9.65;100.00
12879;BME280;20617;49.476;10.986;2023-05-02T03:53:59;98392.75;;;9.62;100.00
12879;BME280;20617;49.476;10.986;2023-05-02T03:56:04;98392.75;;;9.62;100.00
12879;BME280;20617;49.476;10.986;2023-05-02T03:58:21;98397.00;;;9.65;100.00
12879;BME280;20617;49.476;10.986;2023-05-02T04:00:26;98394.25;;;9.69;100.00
12879;BME280;20617;49.476;10.986;2023-05-02T04:02:36;98400.97;;;9.75;100.00
12879;BME280;20617;49.476;10.986;2023-05-02T04:04:47;98397.31;;;9.81;100.00
12879;BME280;20617;49.476;10.986;2023-05-02T04:06:55;98405.25;;;9.76;100.00
12879;BME280;20617;49.476;10.986;2023-05-02T04:09:00;98398.38;;;9.75;100.00
12879;BME280;20617;49.476;10.986;2023-05-02T04:11:12;98401.75;;;9.77;100.00
12879;BME280;20617;49.476;10.986;2023-05-02T04:13:17;98411.16;;;9.81;100.00
12879;BME280;20617;49.476;10.986;2023-05-02T04:15:25;98413.53;;;9.87;100.00
12879;BME280;20617;49.476;10.986;2023-05-02T04:17:30;98411.75;;;9.88;100.00
12879;BME280;20617;49.476;10.986;2023-05-02T04:19:35;98415.91;;;9.93;100.00
12879;BME280;20617;49.476;10.986;2023-05-02T04:21:40;98409.66;;;9.97;100.00
12879;BME280;20617;49.476;10.986;2023-05-02T04:23:45;98412.94;;;10.03;100.00
12879;BME280;20617;49.476;10.986;2023-05-02T04:25:50;98407.59;;;10.07;100.00
12879;BME280;20617;49.476;10.986;2023-05-02T04:28:04;98413.47;;;10.12;100.00
12879;BME280;20617;49.476;10.986;2023-05-02T04:30:09;98413.41;;;10.14;100.00
12879;BME280;20617;49.476;10.986;2023-05-02T04:32:20;98415.88;;;10.17;100.00
12879;BME280;20617;49.476;10.986;2023-05-02T04:34:26;98422.72;;;10.19;100.00
12879;BME280;20617;49.476;10.986;2023-05-02T04:36:32;98426.00;;;10.25;100.00
12879;BME280;20617;49.476;10.986;2023-05-02T04:38:38;98431.81;;;10.33;100.00
12879;BME280;20617;49.476;10.986;2023-05-02T04:40:43;98430.81;;;10.35;100.00
12879;BME280;20617;49.476;10.986;2023-05-02T04:42:48;98434.22;;;10.37;100.00
12879;BME280;20617;49.476;10.986;2023-05-02T04:44:56;98433.13;;;10.43;100.00
12879;BME280;20617;49.476;10.986;2023-05-02T04:47:01;98426.13;;;10.45;100.00
12879;BME280;20617;49.476;10.986;2023-05-02T04:49:08;98433.72;;;10.50;100.00
12879;BME280;20617;49.476;10.986;2023-05-02T04:51:13;98441.25;;;10.57;100.00
12879;BME280;20617;49.476;10.986;2023-05-02T04:53:21;98445.41;;;10.61;100.00
12879;BME280;20617;49.476;10.986;2023-05-02T04:55:27;98441.84;;;10.64;100.00
12879;BME280;20617;49.476;10.986;2023-05-02T04:57:31;98439.13;;;10.67;100.00
12879;BME280;20617;49.476;10.986;2023-05-02T04:59:37;98439.81;;;10.72;100.00
12879;BME280;20617;49.476;10.986;2023-05-02T05:01:42;98447.38;;;10.78;100.00
12879;BME280;20617;49.476;10.986;2023-05-02T05:03:47;98441.19;;;10.81;100.00
12879;BME280;20617;49.476;10.986;2023-05-02T05:05:55;98448.16;;;10.80;100.00
12879;BME280;20617;49.476;10.986;2023-05-02T05:08:01;98453.28;;;10.82;100.00
12879;BME280;20617;49.476;10.986;2023-05-02T05:10:09;98455.91;;;10.82;100.00
12879;BME280;20617;49.476;10.986;2023-05-02T05:12:18;98452.41;;;10.83;100.00
12879;BME280;20617;49.476;10.986;2023-05-02T05:14:23;98469.03;;;10.79;100.00
12879;BME280;20617;49.476;10.986;2023-05-02T05:16:28;98458.50;;;10.82;100.00
12879;BME280;20617;49.476;10.986;2023-05-02T05:18:35;98461.84;;;10.85;100.00
12879;BME280;20617;49.476;10.986;2023-05-02T05:20:43;98463.50;;;10.88;100.00
12879;BME280;20617;49.476;10.986;2023-05-02T05:22:51;98464.22;;;10.92;100.00
12879;BME280;20617;49.476;10.986;2023-05-02T05:24:56;98474.50;;;10.95;100.00
12879;BME280;20617;49.476;10.986;2023-05-02T05:27:04;98469.97;;;11.00;100.00
12879;BME280;20617;49.476;10.986;2023-05-02T05:29:09;98469.75;;;11.04;100.00
12879;BME280;20617;49.476;10.986;2023-05-02T05:31:16;98470.44;;;11.09;100.00
12879;BME280;20617;49.476;10.986;2023-05-02T05:33:24;98478.91;;;11.15;100.00
12879;BME280;20617;49.476;10.986;2023-05-02T05:35:30;98477.81;;;11.20;100.00
12879;BME280;20617;49.476;10.986;2023-05-02T05:37:36;98481.94;;;11.26;100.00
12879;BME280;20617;49.476;10.986;2023-05-02T05:39:47;98483.53;;;11.28;100.00
12879;BME280;20617;49.476;10.986;2023-05-02T05:41:51;98486.94;;;11.30;100.00
12879;BME280;20617;49.476;10.986;2023-05-02T05:43:58;98482.31;;;11.37;100.00
12879;BME280;20617;49.476;10.986;2023-05-02T05:46:03;98484.69;;;11.43;100.00
12879;BME280;20617;49.476;10.986;2023-05-02T05:48:10;98488.75;;;11.49;100.00
12879;BME280;20617;49.476;10.986;2023-05-02T05:50:18;98487.03;;;11.49;100.00
12879;BME280;20617;49.476;10.986;2023-05-02T05:52:23;98482.56;;;11.51;100.00
12879;BME280;20617;49.476;10.986;2023-05-02T05:54:29;98489.50;;;11.52;100.00
12879;BME280;20617;49.476;10.986;2023-05-02T05:56:37;98477.09;;;11.57;100.00
12879;BME280;20617;49.476;10.986;2023-05-02T05:58:48;98486.50;;;11.62;100.00
12879;BME280;20617;49.476;10.986;2023-05-02T06:00:53;98495.03;;;11.65;100.00
12879;BME280;20617;49.476;10.986;2023-05-02T06:02:57;98493.09;;;11.70;100.00
12879;BME280;20617;49.476;10.986;2023-05-02T06:05:05;98498.03;;;11.76;100.00
12879;BME280;20617;49.476;10.986;2023-05-02T06:07:10;98485.66;;;11.82;100.00
12879;BME280;20617;49.476;10.986;2023-05-02T06:09:16;98497.63;;;11.87;100.00
12879;BME280;20617;49.476;10.986;2023-05-02T06:11:21;98503.53;;;11.91;100.00
12879;BME280;20617;49.476;10.986;2023-05-02T06:13:29;98509.41;;;11.96;100.00
12879;BME280;20617;49.476;10.986;2023-05-02T06:15:34;98515.19;;;12.03;100.00
12879;BME280;20617;49.476;10.986;2023-05-02T06:17:40;98513.25;;;12.08;100.00
12879;BME280;20617;49.476;10.986;2023-05-02T06:21:02;98521.97;;;12.07;100.00
12879;BME280;20617;49.476;10.986;2023-05-02T06:23:07;98529.09;;;12.03;100.00
12879;BME280;20617;49.476;10.986;2023-05-02T06:25:12;98527.41;;;12.02;100.00
12879;BME280;20617;49.476;10.986;2023-05-02T06:27:17;98535.00;;;12.07;100.00
12879;BME280;20617;49.476;10.986;2023-05-02T06:29:23;98548.53;;;12.16;100.00
12879;BME280;20617;49.476;10.986;2023-05-02T06:31:28;98542.75;;;12.29;100.00
12879;BME280;20617;49.476;10.986;2023-05-02T06:33:33;98550.38;;;12.33;100.00
12879;BME280;20617;49.476;10.986;2023-05-02T06:35:38;98551.81;;;12.40;100.00
12879;BME280;20617;49.476;10.986;2023-05-02T06:37:45;98554.91;;;12.49;100.00
12879;BME280;20617;49.476;10.986;2023-05-02T06:39:50;98556.56;;;12.51;100.00
12879;BME280;20617;49.476;10.986;2023-05-02T06:41:56;98557.31;;;12.53;100.00
12879;BME280;20617;49.476;10.986;2023-05-02T06:44:02;98557.13;;;12.58;100.00
12879;BME280;20617;49.476;10.986;2023-05-02T06:46:08;98561.78;;;12.51;100.00
12879;BME280;20617;49.476;10.986;2023-05-02T06:48:13;98562.38;;;12.56;100.00
12879;BME280;20617;49.476;10.986;2023-05-02T06:50:19;98562.19;;;12.61;100.00
12879;BME280;20617;49.476;10.986;2023-05-02T06:52:24;98564.53;;;12.67;100.00
12879;BME280;20617;49.476;10.986;2023-05-02T06:54:32;98575.94;;;12.64;100.00
12879;BME280;20617;49.476;10.986;2023-05-02T06:56:37;98574.97;;;12.48;100.00
12879;BME280;20617;49.476;10.986;2023-05-02T06:58:42;98586.59;;;12.41;100.00
12879;BME280;20617;49.476;10.986;2023-05-02T07:00:47;98589.06;;;12.44;100.00
12879;BME280;20617;49.476;10.986;2023-05-02T07:02:52;98584.28;;;12.54;100.00
12879;BME280;20617;49.476;10.986;2023-05-02T07:04:57;98587.38;;;12.62;100.00
12879;BME280;20617;49.476;10.986;2023-05-02T07:07:02;98599.19;;;12.71;100.00
12879;BME280;20617;49.476;10.986;2023-05-02T07:09:07;98598.16;;;12.75;100.00
12879;BME280;20617;49.476;10.986;2023-05-02T07:11:15;98596.03;;;12.83;100.00
12879;BME280;20617;49.476;10.986;2023-05-02T07:13:20;98598.75;;;12.80;100.00
12879;BME280;20617;49.476;10.986;2023-05-02T07:15:28;98607.84;;;12.71;100.00
12879;BME280;20617;49.476;10.986;2023-05-02T07:17:33;98601.59;;;12.75;100.00
12879;BME280;20617;49.476;10.986;2023-05-02T07:19:38;98598.84;;;12.78;100.00
12879;BME280;20617;49.476;10.986;2023-05-02T07:21:46;98604.91;;;12.79;100.00
12879;BME280;20617;49.476;10.986;2023-05-02T07:23:50;98609.09;;;12.83;100.00
12879;BME280;20617;49.476;10.986;2023-05-02T07:25:58;98609.81;;;12.86;100.00
12879;BME280;20617;49.476;10.986;2023-05-02T07:28:09;98612.13;;;12.93;100.00
12879;BME280;20617;49.476;10.986;2023-05-02T07:30:14;98618.34;;;12.90;100.00
12879;BME280;20617;49.476;10.986;2023-05-02T07:32:19;98616.38;;;12.95;100.00
12879;BME280;20617;49.476;10.986;2023-05-02T07:34:26;98623.91;;;12.82;100.00
12879;BME280;20617;49.476;10.986;2023-05-02T07:36:31;98624.97;;;12.78;100.00
12879;BME280;20617;49.476;10.986;2023-05-02T07:38:36;98628.38;;;12.80;100.00
12879;BME280;20617;49.476;10.986;2023-05-02T07:40:41;98630.00;;;12.83;100.00
12879;BME280;20617;49.476;10.986;2023-05-02T07:42:48;98634.44;;;12.81;100.00
12879;BME280;20617;49.476;10.986;2023-05-02T07:44:55;98634.78;;;12.73;100.00
12879;BME280;20617;49.476;10.986;2023-05-02T07:47:00;98639.72;;;12.79;100.00
12879;BME280;20617;49.476;10.986;2023-05-02T07:49:05;98641.50;;;12.79;100.00
12879;BME280;20617;49.476;10.986;2023-05-02T07:51:11;98644.88;;;12.81;100.00
12879;BME280;20617;49.476;10.986;2023-05-02T07:53:16;98642.47;;;12.76;100.00
12879;BME280;20617;49.476;10.986;2023-05-02T07:55:22;98649.88;;;12.66;100.00
12879;BME280;20617;49.476;10.986;2023-05-02T07:57:27;98655.88;;;12.68;100.00
12879;BME280;20617;49.476;10.986;2023-05-02T07:59:32;98663.88;;;12.65;100.00
12879;BME280;20617;49.476;10.986;2023-05-02T08:01:40;98649.41;;;12.77;100.00
12879;BME280;20617;49.476;10.986;2023-05-02T08:03:45;98662.94;;;12.85;100.00
12879;BME280;20617;49.476;10.986;2023-05-02T08:05:51;98666.66;;;13.00;100.00
12879;BME280;20617;49.476;10.986;2023-05-02T08:07:56;98661.91;;;13.08;100.00
12879;BME280;20617;49.476;10.986;2023-05-02T08:10:02;98670.25;;;13.17;100.00
12879;BME280;20617;49.476;10.986;2023-05-02T08:12:07;98666.25;;;13.28;100.00
12879;BME280;20617;49.476;10.986;2023-05-02T08:14:13;98665.97;;;13.34;100.00
12879;BME280;20617;49.476;10.986;2023-05-02T08:16:19;98666.97;;;13.51;100.00
12879;BME280;20617;49.476;10.986;2023-05-02T08:18:26;98670.53;;;13.67;100.00
12879;BME280;20617;49.476;10.986;2023-05-02T08:20:31;98665.34;;;13.85;100.00
12879;BME280;20617;49.476;10.986;2023-05-02T08:22:37;98663.81;;;13.98;100.00
12879;BME280;20617;49.476;10.986;2023-05-02T08:24:42;98665.75;;;14.12;100.00
12879;BME280;20617;49.476;10.986;2023-05-02T08:26:47;98653.72;;;14.25;100.00
12879;BME280;20617;49.476;10.986;2023-05-02T08:28:52;98654.84;;;14.37;100.00
12879;BME280;20617;49.476;10.986;2023-05-02T08:30:57;98656.88;;;14.49;100.00
12879;BME280;20617;49.476;10.986;2023-05-02T08:33:03;98653.38;;;14.66;100.00
12879;BME280;20617;49.476;10.986;2023-05-02T08:35:10;98656.94;;;14.65;100.00
12879;BME280;20617;49.476;10.986;2023-05-02T08:37:15;98645.53;;;14.66;100.00
12879;BME280;20617;49.476;10.986;2023-05-02T08:39:20;98662.56;;;14.57;100.00
12879;BME280;20617;49.476;10.986;2023-05-02T08:41:27;98663.28;;;14.61;100.00
12879;BME280;20617;49.476;10.986;2023-05-02T08:43:33;98667.03;;;14.38;100.00
12879;BME280;20617;49.476;10.986;2023-05-02T08:45:40;98661.72;;;14.57;100.00
12879;BME280;20617;49.476;10.986;2023-05-02T08:47:46;98664.88;;;14.81;100.00
12879;BME280;20617;49.476;10.986;2023-05-02T08:49:52;98660.91;;;14.89;100.00
12879;BME280;20617;49.476;10.986;2023-05-02T08:52:03;98661.41;;;14.96;100.00
12879;BME280;20617;49.476;10.986;2023-05-02T08:54:09;98667.72;;;14.92;100.00
12879;BME280;20617;49.476;10.986;2023-05-02T08:56:14;98669.00;;;14.85;100.00
12879;BME280;20617;49.476;10.986;2023-05-02T08:58:20;98670.00;;;14.82;100.00
12879;BME280;20617;49.476;10.986;2023-05-02T09:00:25;98672.50;;;14.68;100.00
12879;BME280;20617;49.476;10.986;2023-05-02T09:02:47;98677.84;;;14.66;100.00
12879;BME280;20617;49.476;10.986;2023-05-02T09:04:57;98681.84;;;14.56;100.00
12879;BME280;20617;49.476;10.986;2023-05-02T09:07:07;98681.75;;;14.40;100.00
12879;BME280;20617;49.476;10.986;2023-05-02T09:09:12;98682.22;;;14.31;100.00
12879;BME280;20617;49.476;10.986;2023-05-02T09:11:20;98689.31;;;14.12;100.00
12879;BME280;20617;49.476;10.986;2023-05-02T09:13:33;98693.28;;;14.01;100.00
12879;BME280;20617;49.476;10.986;2023-05-02T09:15:39;98691.13;;;14.10;100.00
12879;BME280;20617;49.476;10.986;2023-05-02T09:17:46;98695.00;;;14.20;100.00
12879;BME280;20617;49.476;10.986;2023-05-02T09:19:58;98695.69;;;14.41;100.00
12879;BME280;20617;49.476;10.986;2023-05-02T09:22:06;98690.00;;;14.33;100.00
12879;BME280;20617;49.476;10.986;2023-05-02T09:24:16;98682.13;;;14.50;100.00
12879;BME280;20617;49.476;10.986;2023-05-02T09:26:25;98689.31;;;14.46;100.00
12879;BME280;20617;49.476;10.986;2023-05-02T09:28:37;98686.16;;;14.57;100.00
12879;BME280;20617;49.476;10.986;2023-05-02T09:30:43;98684.44;;;14.74;100.00
12879;BME280;20617;49.476;10.986;2023-05-02T09:32:49;98675.19;;;14.84;100.00
12879;BME280;20617;49.476;10.986;2023-05-02T09:35:07;98679.09;;;15.08;100.00
12879;BME280;20617;49.476;10.986;2023-05-02T09:37:32;98670.59;;;15.36;100.00
12879;BME280;20617;49.476;10.986;2023-05-02T09:39:38;98669.50;;;15.56;100.00
12879;BME280;20617;49.476;10.986;2023-05-02T09:41:44;98675.13;;;15.65;100.00
12879;BME280;20617;49.476;10.986;2023-05-02T09:43:55;98669.91;;;15.80;100.00
12879;BME280;20617;49.476;10.986;2023-05-02T09:46:01;98676.84;;;15.66;100.00
12879;BME280;20617;49.476;10.986;2023-05-02T09:48:06;98679.81;;;15.75;100.00
12879;BME280;20617;49.476;10.986;2023-05-02T09:50:31;98674.28;;;15.64;100.00
12879;BME280;20617;49.476;10.986;2023-05-02T09:52:39;98681.56;;;15.59;100.00
12879;BME280;20617;49.476;10.986;2023-05-02T09:54:44;98680.00;;;15.56;100.00
12879;BME280;20617;49.476;10.986;2023-05-02T09:56:52;98683.19;;;15.61;100.00
12879;BME280;20617;49.476;10.986;2023-05-02T09:59:19;98686.50;;;15.65;100.00
12879;BME280;20617;49.476;10.986;2023-05-02T10:01:24;98683.47;;;15.57;100.00
12879;BME280;20617;49.476;10.986;2023-05-02T10:03:29;98688.03;;;15.53;100.00
12879;BME280;20617;49.476;10.986;2023-05-02T10:05:35;98685.06;;;15.44;100.00
12879;BME280;20617;49.476;10.986;2023-05-02T10:07:43;98683.81;;;15.51;100.00
12879;BME280;20617;49.476;10.986;2023-05-02T10:09:49;98697.50;;;15.40;100.00
12879;BME280;20617;49.476;10.986;2023-05-02T10:11:55;98689.44;;;15.59;100.00
12879;BME280;20617;49.476;10.986;2023-05-02T10:14:00;98686.09;;;15.73;100.00
12879;BME280;20617;49.476;10.986;2023-05-02T10:16:07;98679.22;;;15.70;100.00
12879;BME280;20617;49.476;10.986;2023-05-02T10:18:20;98683.41;;;15.74;100.00
12879;BME280;20617;49.476;10.986;2023-05-02T10:20:29;98679.31;;;15.84;100.00
12879;BME280;20617;49.476;10.986;2023-05-02T10:22:35;98685.22;;;15.88;100.00
12879;BME280;20617;49.476;10.986;2023-05-02T10:24:42;98679.22;;;15.86;100.00
12879;BME280;20617;49.476;10.986;2023-05-02T10:26:48;98678.28;;;15.87;100.00
12879;BME280;20617;49.476;10.986;2023-05-02T10:28:55;98680.75;;;16.20;100.00
12879;BME280;20617;49.476;10.986;2023-05-02T10:31:01;98674.78;;;16.33;100.00
12879;BME280;20617;49.476;10.986;2023-05-02T10:33:06;98671.72;;;16.55;100.00
12879;BME280;20617;49.476;10.986;2023-05-02T10:35:11;98662.63;;;16.74;100.00
12879;BME280;20617;49.476;10.986;2023-05-02T10:37:17;98656.09;;;16.96;100.00
12879;BME280;20617;49.476;10.986;2023-05-02T10:39:23;98656.94;;;17.11;100.00
12879;BME280;20617;49.476;10.986;2023-05-02T10:41:30;98657.00;;;17.24;100.00
12879;BME280;20617;49.476;10.986;2023-05-02T10:43:37;98653.34;;;17.26;100.00
12879;BME280;20617;49.476;10.986;2023-05-02T10:45:42;98644.81;;;17.23;100.00
12879;BME280;20617;49.476;10.986;2023-05-02T10:47:47;98649.50;;;17.17;100.00
12879;BME280;20617;49.476;10.986;2023-05-02T10:49:53;98655.94;;;17.40;100.00
12879;BME280;20617;49.476;10.986;2023-05-02T10:51:59;98636.16;;;17.48;100.00
12879;BME280;20617;49.476;10.986;2023-05-02T10:54:24;98645.19;;;17.58;100.00
12879;BME280;20617;49.476;10.986;2023-05-02T10:56:33;98639.63;;;17.48;100.00
12879;BME280;20617;49.476;10.986;2023-05-02T10:58:38;98647.25;;;17.53;100.00